Terminal Aerodrome Forecast
Issued by NWS Newport/Morehead City, NC

Home | Current Version | Previous Version | Text Only | Print | Product List | Glossary On
Versions: 1 2 3 4 5 6 7 8 9 10 11 12 13 14 15 16 17 18 19
667
FTUS42 KMHX 220233 AAA
TAFEWN
TAF AMD
KEWN 220233Z 2203/2224 00000KT P6SM VCSH BKN040
      TEMPO 2203/2204 4SM TSRA OVC040CB
     FM220600 00000KT P6SM BKN007
     FM221600 01005KT 5SM -SHRA BKN025=

USA.gov is the U.S. government's official web portal to all federal, state and local government web resources and services.